createdAt,value
2023-05-01T00:03:39.262Z,14.80
2023-05-01T00:07:41.400Z,12.38
2023-05-01T00:11:43.417Z,14.23
2023-05-01T00:15:45.551Z,12.82
2023-05-01T00:19:51.268Z,15.82
2023-05-01T00:23:53.516Z,14.95
2023-05-01T00:27:55.577Z,14.98
2023-05-01T00:31:57.890Z,15.43
2023-05-01T00:35:59.950Z,14.38
2023-05-01T00:40:02.063Z,13.68
2023-05-01T00:44:04.486Z,12.85
2023-05-01T00:48:06.732Z,13.35
2023-05-01T00:52:10.005Z,12.15
2023-05-01T00:56:12.580Z,13.07
2023-05-01T01:00:14.885Z,12.10
2023-05-01T01:04:17.080Z,12.70
2023-05-01T01:09:07.984Z,13.90
2023-05-01T01:13:20.265Z,12.50
2023-05-01T01:17:35.455Z,13.57
2023-05-01T01:21:44.880Z,12.32
2023-05-01T01:26:03.206Z,11.75
2023-05-01T01:30:23.405Z,12.63
2023-05-01T01:34:28.075Z,12.30
2023-05-01T01:38:42.477Z,11.93
2023-05-01T01:42:53.704Z,12.82
2023-05-01T01:46:56.628Z,12.75
2023-05-01T01:51:01.013Z,14.73
2023-05-01T01:55:08.894Z,14.07
2023-05-01T01:59:11.237Z,14.05
2023-05-01T02:03:15.071Z,14.50
2023-05-01T02:07:20.275Z,12.95
2023-05-01T02:11:25.204Z,13.82
2023-05-01T02:15:30.004Z,13.13
2023-05-01T02:19:34.499Z,13.30
2023-05-01T02:23:38.326Z,14.77
2023-05-01T02:27:57.851Z,12.93
2023-05-01T02:32:01.161Z,12.95
2023-05-01T02:36:05.392Z,13.38
2023-05-01T02:40:09.111Z,15.07
2023-05-01T02:44:13.052Z,13.95
2023-05-01T02:48:18.891Z,15.93
2023-05-01T02:52:22.968Z,15.13
2023-05-01T02:56:31.680Z,16.50
2023-05-01T03:00:34.470Z,16.70
2023-05-01T03:04:36.545Z,13.48
2023-05-01T03:08:38.633Z,14.52
2023-05-01T03:12:40.941Z,16.38
2023-05-01T03:16:43.710Z,13.80
2023-05-01T03:20:53.533Z,14.48
2023-05-01T03:24:55.673Z,14.75
2023-05-01T03:28:58.419Z,13.05
2023-05-01T03:33:01.983Z,14.27
2023-05-01T03:37:06.973Z,14.77
2023-05-01T03:41:10.016Z,13.73
2023-05-01T03:45:31.048Z,14.23
2023-05-01T03:49:33.306Z,14.20
2023-05-01T03:53:36.711Z,14.27
2023-05-01T03:57:41.192Z,14.57
2023-05-01T04:01:44.282Z,15.07
2023-05-01T04:05:46.437Z,14.57
2023-05-01T04:09:48.574Z,14.30
2023-05-01T04:13:50.618Z,14.30
2023-05-01T04:17:55.834Z,13.55
2023-05-01T04:21:58.676Z,13.73
2023-05-01T04:26:01.455Z,14.40
2023-05-01T04:30:03.772Z,13.77
2023-05-01T04:34:06.885Z,13.70
2023-05-01T04:38:11.702Z,13.32
2023-05-01T04:42:15.751Z,12.77
2023-05-01T04:46:17.835Z,12.65
2023-05-01T04:50:20.042Z,12.73
2023-05-01T04:54:23.455Z,10.85
2023-05-01T04:58:25.495Z,9.77
2023-05-01T05:02:33.525Z,10.40
2023-05-01T05:06:35.689Z,7.93
2023-05-01T05:10:38.414Z,7.70
2023-05-01T05:15:12.321Z,7.65
2023-05-01T05:19:14.455Z,7.07
2023-05-01T05:23:17.927Z,6.25
2023-05-01T05:27:20.223Z,6.00
2023-05-01T05:31:23.604Z,5.22
2023-05-01T05:35:26.118Z,4.97
2023-05-01T05:39:28.346Z,5.55
2023-05-01T05:43:30.940Z,5.68
2023-05-01T05:47:33.114Z,4.40
2023-05-01T05:51:35.932Z,5.50
2023-05-01T05:55:38.903Z,5.32
2023-05-01T05:59:41.888Z,4.90
2023-05-01T06:03:44.751Z,3.63
2023-05-01T06:07:47.131Z,3.80
2023-05-01T06:11:49.231Z,4.03
2023-05-01T06:15:52.486Z,3.78
2023-05-01T06:19:55.202Z,3.38
2023-05-01T06:23:57.990Z,4.13
2023-05-01T06:28:22.551Z,3.35
2023-05-01T06:32:24.386Z,3.22
2023-05-01T06:36:26.402Z,3.20
2023-05-01T06:40:28.660Z,3.67
2023-05-01T06:44:32.778Z,3.33
2023-05-01T06:48:36.555Z,3.75
2023-05-01T06:52:38.806Z,4.63
2023-05-01T06:56:42.375Z,4.20
2023-05-01T07:00:44.489Z,3.92
2023-05-01T07:04:46.504Z,3.90
2023-05-01T07:08:49.008Z,3.58
2023-05-01T07:12:51.008Z,3.30
2023-05-01T07:16:53.123Z,3.80
2023-05-01T07:20:55.600Z,3.47
2023-05-01T07:24:57.716Z,4.30
2023-05-01T07:28:59.746Z,4.03
2023-05-01T07:33:01.774Z,3.97
2023-05-01T07:37:05.005Z,4.65
2023-05-01T07:41:07.286Z,4.38
2023-05-01T07:45:09.759Z,4.40
2023-05-01T07:49:11.776Z,4.28
2023-05-01T07:53:13.814Z,4.25
2023-05-01T07:57:15.809Z,3.88
2023-05-01T08:01:17.933Z,4.15
2023-05-01T08:05:19.909Z,3.45
2023-05-01T08:09:22.100Z,4.13
2023-05-01T08:13:24.242Z,3.90
2023-05-01T08:17:26.379Z,3.28
2023-05-01T08:21:28.482Z,3.80
2023-05-01T08:25:31.637Z,4.10
2023-05-01T08:29:34.258Z,3.90
2023-05-01T08:33:35.942Z,3.60
2023-05-01T08:37:38.319Z,3.67
2023-05-01T08:41:40.349Z,4.18
2023-05-01T08:45:42.871Z,3.63
2023-05-01T08:49:45.973Z,3.35
2023-05-01T08:53:50.718Z,4.20
2023-05-01T08:57:53.312Z,3.63
2023-05-01T09:01:56.525Z,3.85
2023-05-01T09:06:00.219Z,3.55
2023-05-01T09:10:02.429Z,3.15
2023-05-01T09:14:08.572Z,3.72
2023-05-01T09:18:11.603Z,3.55
2023-05-01T09:22:13.719Z,3.88
2023-05-01T09:26:15.878Z,3.30
2023-05-01T09:30:37.836Z,3.10
2023-05-01T09:34:39.883Z,2.95
2023-05-01T09:38:43.465Z,2.80
2023-05-01T09:42:53.474Z,2.78
2023-05-01T09:46:55.548Z,3.47
2023-05-01T09:50:57.720Z,3.10
2023-05-01T09:55:13.820Z,3.47
2023-05-01T09:59:20.530Z,3.03
2023-05-01T10:03:22.925Z,3.22
2023-05-01T10:07:25.078Z,4.22
2023-05-01T10:11:27.298Z,3.40
2023-05-01T10:15:38.431Z,4.07
2023-05-01T10:19:40.782Z,4.07
2023-05-01T10:23:42.891Z,4.05
2023-05-01T10:27:45.264Z,3.38
2023-05-01T10:31:47.508Z,3.08
2023-05-01T10:35:58.869Z,2.97
2023-05-01T10:40:00.988Z,3.72
2023-05-01T10:44:23.203Z,3.50
2023-05-01T10:48:40.728Z,3.70
2023-05-01T10:53:15.695Z,3.13
2023-05-01T10:57:47.049Z,3.25
2023-05-01T11:01:51.953Z,3.08
2023-05-01T11:06:00.340Z,2.75
2023-05-01T11:10:02.655Z,4.03
2023-05-01T11:14:06.393Z,9.20
2023-05-01T11:18:08.760Z,3.10
2023-05-01T11:22:14.008Z,3.58
2023-05-01T11:26:16.251Z,3.35
2023-05-01T11:30:18.979Z,3.08
2023-05-01T11:34:21.310Z,3.78
2023-05-01T11:38:23.586Z,3.42
2023-05-01T11:42:25.818Z,3.58
2023-05-01T11:46:32.781Z,2.92
2023-05-01T11:50:37.128Z,3.20
2023-05-01T11:54:48.072Z,3.22
2023-05-01T11:58:50.708Z,3.17
2023-05-01T12:02:57.549Z,2.83
2023-05-01T12:06:59.920Z,3.17
2023-05-01T12:11:02.432Z,3.17
2023-05-01T12:15:05.089Z,2.53
2023-05-01T12:19:07.571Z,3.40
2023-05-01T12:23:12.065Z,2.58
2023-05-01T12:27:14.133Z,2.85
2023-05-01T12:31:16.259Z,2.53
2023-05-01T12:35:18.385Z,2.35
2023-05-01T12:39:23.497Z,2.78
2023-05-01T12:43:34.137Z,2.25
2023-05-01T12:47:37.783Z,2.45
2023-05-01T12:51:39.828Z,2.45
2023-05-01T12:55:50.795Z,1.92
2023-05-01T13:00:01.250Z,2.67
2023-05-01T13:04:03.510Z,2.38
2023-05-01T13:08:06.057Z,2.70
2023-05-01T13:12:09.850Z,2.85
2023-05-01T13:16:16.680Z,2.47
2023-05-01T13:20:26.888Z,2.60
2023-05-01T13:24:55.557Z,2.80
2023-05-01T13:28:58.753Z,2.40
2023-05-01T13:33:01.886Z,3.38
2023-05-01T13:37:04.151Z,2.20
2023-05-01T13:41:06.167Z,2.70
2023-05-01T13:45:08.962Z,3.45
2023-05-01T13:49:11.227Z,3.88
2023-05-01T13:53:14.523Z,2.97
2023-05-01T13:57:17.344Z,2.40
2023-05-01T14:01:21.413Z,2.50
2023-05-01T14:05:30.559Z,2.50
2023-05-01T14:09:39.288Z,2.38
2023-05-01T14:13:45.889Z,2.50
2023-05-01T14:17:49.215Z,2.38
2023-05-01T14:21:52.414Z,2.40
2023-05-01T14:25:54.485Z,2.67
2023-05-01T14:29:56.427Z,2.90
2023-05-01T14:34:00.678Z,2.35
2023-05-01T14:38:14.079Z,2.60
2023-05-01T14:42:16.281Z,3.78
2023-05-01T14:46:27.889Z,2.92
2023-05-01T14:50:31.334Z,2.55
2023-05-01T14:54:44.161Z,2.30
2023-05-01T14:58:47.187Z,2.83
2023-05-01T15:02:49.611Z,2.50
2023-05-01T15:06:52.222Z,2.53
2023-05-01T15:10:54.304Z,3.42
2023-05-01T15:14:56.497Z,3.28
2023-05-01T15:18:58.679Z,2.90
2023-05-01T15:23:00.835Z,2.30
2023-05-01T15:27:03.158Z,3.13
2023-05-01T15:31:06.351Z,2.22
2023-05-01T15:35:09.227Z,2.88
2023-05-01T15:39:12.008Z,2.25
2023-05-01T15:43:13.946Z,2.30
2023-05-01T15:47:16.428Z,2.80
2023-05-01T15:51:19.671Z,2.70
2023-05-01T15:55:22.014Z,2.30
2023-05-01T15:59:24.855Z,2.55
2023-05-01T16:03:27.037Z,2.33
2023-05-01T16:07:29.599Z,2.80
2023-05-01T16:11:32.561Z,2.65
2023-05-01T16:15:36.333Z,3.13
2023-05-01T16:19:39.177Z,3.08
2023-05-01T16:23:41.953Z,2.40
2023-05-01T16:27:45.858Z,2.40
2023-05-01T16:31:48.012Z,3.08
2023-05-01T16:35:50.232Z,19.42
2023-05-01T16:39:52.648Z,3.25
2023-05-01T16:43:59.326Z,2.67
2023-05-01T16:48:01.312Z,3.70
2023-05-01T16:52:04.463Z,3.10
2023-05-01T16:56:08.999Z,2.97
2023-05-01T17:00:11.681Z,2.53
2023-05-01T17:04:15.086Z,2.80
2023-05-01T17:08:17.349Z,2.40
2023-05-01T17:12:19.375Z,3.13
2023-05-01T17:16:21.807Z,2.25
2023-05-01T17:20:23.826Z,2.45
2023-05-01T17:24:26.958Z,2.65
2023-05-01T17:28:29.023Z,3.30
2023-05-01T17:32:36.911Z,2.60
2023-05-01T17:36:39.182Z,2.83
2023-05-01T17:40:41.364Z,3.10
2023-05-01T17:44:43.356Z,3.47
2023-05-01T17:48:45.564Z,4.15
2023-05-01T17:52:47.832Z,4.25
2023-05-01T17:56:49.925Z,4.88
2023-05-01T18:00:51.961Z,4.45
2023-05-01T18:04:55.229Z,4.72
2023-05-01T18:08:57.524Z,5.00
2023-05-01T18:12:59.731Z,6.07
2023-05-01T18:17:01.813Z,5.88
2023-05-01T18:21:04.078Z,6.45
2023-05-01T18:25:06.762Z,6.00
2023-05-01T18:29:08.808Z,5.40
2023-05-01T18:33:12.060Z,4.78
2023-05-01T18:37:14.816Z,4.90
2023-05-01T18:41:16.753Z,6.88
2023-05-01T18:45:18.982Z,7.63
2023-05-01T18:49:23.882Z,9.48
2023-05-01T18:53:26.084Z,8.75
2023-05-01T18:57:28.663Z,7.50
2023-05-01T19:01:30.851Z,6.65
2023-05-01T19:05:32.927Z,6.25
2023-05-01T19:09:35.138Z,6.20
2023-05-01T19:13:37.366Z,6.97
2023-05-01T19:17:39.549Z,7.10
2023-05-01T19:21:41.693Z,6.70
2023-05-01T19:25:43.680Z,6.68
2023-05-01T19:29:45.700Z,6.85
2023-05-01T19:33:48.281Z,7.45
2023-05-01T19:37:58.404Z,7.28
2023-05-01T19:42:02.180Z,7.22
2023-05-01T19:46:04.719Z,7.57
2023-05-01T19:50:07.960Z,8.07
2023-05-01T19:54:10.004Z,7.93
2023-05-01T19:58:12.139Z,8.10
2023-05-01T20:02:14.212Z,8.07
2023-05-01T20:06:16.446Z,7.85
2023-05-01T20:10:18.244Z,8.00
2023-05-01T20:14:20.373Z,8.57
2023-05-01T20:18:22.336Z,7.63
2023-05-01T20:22:24.405Z,9.48
2023-05-01T20:26:26.635Z,8.57
2023-05-01T20:30:29.786Z,7.82
2023-05-01T20:34:32.518Z,9.32
2023-05-01T20:38:41.684Z,10.40
2023-05-01T20:42:43.598Z,11.25
2023-05-01T20:46:46.770Z,10.48
2023-05-01T20:50:49.784Z,10.77
2023-05-01T20:54:51.790Z,9.65
2023-05-01T20:58:54.421Z,10.43
2023-05-01T21:02:58.045Z,10.63
2023-05-01T21:07:00.135Z,10.55
2023-05-01T21:11:02.777Z,9.40
2023-05-01T21:15:05.458Z,8.77
2023-05-01T21:19:07.638Z,9.00
2023-05-01T21:23:09.616Z,7.75
2023-05-01T21:27:12.376Z,7.63
2023-05-01T21:31:15.940Z,7.95
2023-05-01T21:35:20.685Z,7.38
2023-05-01T21:39:24.716Z,8.50
2023-05-01T21:43:26.891Z,8.82
2023-05-01T21:47:29.606Z,8.45
2023-05-01T21:51:33.062Z,7.57
2023-05-01T21:55:35.131Z,8.57
2023-05-01T21:59:38.754Z,8.73
2023-05-01T22:03:41.694Z,7.25
2023-05-01T22:07:45.372Z,7.72
2023-05-01T22:11:47.335Z,7.35
2023-05-01T22:15:49.544Z,7.97
2023-05-01T22:19:52.051Z,8.60
2023-05-01T22:23:55.424Z,8.45
2023-05-01T22:27:57.836Z,8.55
2023-05-01T22:32:00.024Z,8.50
2023-05-01T22:36:02.074Z,7.97
2023-05-01T22:40:04.881Z,9.00
2023-05-01T22:44:07.367Z,8.93
2023-05-01T22:48:09.719Z,8.35
2023-05-01T22:52:11.763Z,8.43
2023-05-01T22:56:14.017Z,8.48
2023-05-01T23:00:16.818Z,9.18
2023-05-01T23:04:19.410Z,8.77
2023-05-01T23:08:21.677Z,9.10
2023-05-01T23:12:25.609Z,7.70
2023-05-01T23:16:28.142Z,8.70
2023-05-01T23:20:30.430Z,7.55
2023-05-01T23:24:41.678Z,8.90
2023-05-01T23:28:43.724Z,8.85
2023-05-01T23:32:46.089Z,9.18
2023-05-01T23:36:48.364Z,8.60
2023-05-01T23:40:50.862Z,8.50
2023-05-01T23:44:53.065Z,7.47
2023-05-01T23:48:55.124Z,8.93
2023-05-01T23:52:57.208Z,8.55
2023-05-01T23:56:59.845Z,8.27
